Time;durP1;ratioP1;P1;durP2;ratioP2;P2;SDS_P1;SDS_P2;PMS_P1;PMS_P2;Temp;Humidity;BMP_temperature;BMP_pressure;BME280_temperature;BME280_humidity;BME280_pressure;Samples;Min_cycle;Max_cycle;Signal;HPM_P1;HPM_P2
2023/09/07 00:01:12;;;;;;;0.57;0.57;;;;;;;21.75;45.11;101709.91;5009711;28;20430;-82
2023/09/07 00:03:40;;;;;;;0.30;0.30;;;;;;;21.81;44.96;101719.00;5010163;28;20388;-82
2023/09/07 00:06:10;;;;;;;0.70;0.40;;;;;;;21.82;44.80;101720.66;4992697;28;20376;-82
2023/09/07 00:08:36;;;;;;;0.60;0.60;;;;;;;21.77;45.03;101724.03;4992973;28;20396;-82
2023/09/07 00:11:07;;;;;;;0.40;0.40;;;;;;;21.73;44.90;101720.09;4971793;28;20425;-81
2023/09/07 00:13:35;;;;;;;0.35;0.35;;;;;;;21.62;45.10;101723.50;4987910;28;20929;-81
2023/09/07 00:16:03;;;;;;;0.50;0.40;;;;;;;21.61;45.02;101722.69;4988062;28;20505;-82
2023/09/07 00:18:29;;;;;;;0.30;0.30;;;;;;;21.68;44.86;101722.63;4988542;28;20453;-79
2023/09/07 00:20:55;;;;;;;0.25;0.25;;;;;;;21.68;44.81;101717.22;4991751;28;20471;-82
2023/09/07 00:23:22;;;;;;;0.20;0.20;;;;;;;21.67;44.73;101723.69;4991703;28;20417;-79
2023/09/07 00:25:48;;;;;;;0.30;0.30;;;;;;;21.61;44.78;101722.69;4990593;28;20401;-82
2023/09/07 00:28:13;;;;;;;0.20;0.20;;;;;;;21.63;44.72;101727.88;4973852;28;20425;-81
2023/09/07 00:30:40;;;;;;;0.50;0.50;;;;;;;21.57;44.66;101735.78;4990343;28;20401;-82
2023/09/07 00:33:07;;;;;;;0.40;0.40;;;;;;;21.50;44.70;101726.06;4989947;28;20920;-82
2023/09/07 00:35:34;;;;;;;1.13;0.90;;;;;;;21.51;44.51;101731.25;4973834;28;20995;-82
2023/09/07 00:38:00;;;;;;;0.50;0.40;;;;;;;21.49;44.66;101733.34;4990327;28;20436;-82
2023/09/07 00:40:26;;;;;;;0.37;0.37;;;;;;;21.54;44.51;101724.59;4974308;28;21094;-83
2023/09/07 00:42:53;;;;;;;0.43;0.40;;;;;;;21.49;44.28;101721.72;5008562;28;20449;-81
2023/09/07 00:45:19;;;;;;;0.30;0.30;;;;;;;21.46;44.36;101724.84;4994458;28;20384;-82
2023/09/07 00:47:47;;;;;;;0.22;0.22;;;;;;;21.49;44.14;101729.81;5012078;28;20437;-81
2023/09/07 00:50:14;;;;;;;0.23;0.23;;;;;;;21.54;44.18;101733.53;4978128;28;20638;-81
2023/09/07 00:52:42;;;;;;;0.20;0.20;;;;;;;21.48;44.10;101733.56;5009496;28;20400;-85
2023/09/07 00:55:09;;;;;;;0.10;0.10;;;;;;;21.40;44.22;101731.91;4992648;28;20383;-86
2023/09/07 00:57:36;;;;;;;0.40;0.40;;;;;;;21.29;44.14;101730.75;5009779;28;20442;-83
2023/09/07 01:00:06;;;;;;;0.20;0.20;;;;;;;21.17;44.34;101730.59;5009873;28;20476;-83
2023/09/07 01:02:31;;;;;;;0.38;0.38;;;;;;;21.11;44.34;101727.94;4995661;28;20395;-83
2023/09/07 01:04:59;;;;;;;0.30;0.30;;;;;;;21.06;44.34;101725.88;4995321;28;20392;-83
2023/09/07 01:07:37;;;;;;;0.40;0.40;;;;;;;21.04;44.15;101729.84;4979287;28;20461;-84
2023/09/07 01:10:04;;;;;;;0.20;0.20;;;;;;;21.05;44.16;101729.63;4997461;28;20395;-83
2023/09/07 01:12:31;;;;;;;0.30;0.30;;;;;;;21.08;44.14;101733.75;5012721;28;20420;-84
2023/09/07 01:14:58;;;;;;;0.30;0.30;;;;;;;20.90;44.25;101731.78;5010614;28;20517;-84
2023/09/07 01:17:25;;;;;;;0.30;0.30;;;;;;;20.75;44.40;101732.88;4995244;28;20830;-82
2023/09/07 01:19:52;;;;;;;0.30;0.30;;;;;;;20.71;44.65;101741.59;5012666;28;20404;-81
2023/09/07 01:22:19;;;;;;;0.30;0.30;;;;;;;20.67;44.51;101734.97;4978746;28;20422;-83
2023/09/07 01:24:46;;;;;;;0.40;0.40;;;;;;;20.56;44.83;101736.41;4995249;28;20384;-82
2023/09/07 01:27:13;;;;;;;0.52;0.40;;;;;;;20.52;44.87;101730.63;5012524;28;20768;-83
2023/09/07 01:29:40;;;;;;;0.50;0.40;;;;;;;20.50;44.87;101734.56;5012524;28;20376;-82
2023/09/07 01:32:06;;;;;;;0.40;0.30;;;;;;;20.46;44.90;101739.56;5012620;28;20467;-82
2023/09/07 01:34:32;;;;;;;0.10;0.10;;;;;;;20.48;44.88;101732.09;5012261;28;20499;-82
2023/09/07 01:36:59;;;;;;;0.28;0.28;;;;;;;20.52;44.80;101729.78;5012438;28;20886;-82
2023/09/07 01:39:24;;;;;;;0.40;0.40;;;;;;;20.63;44.62;101742.63;5012938;28;20384;-82
2023/09/07 01:41:50;;;;;;;0.20;0.20;;;;;;;20.67;44.61;101740.34;5012090;28;20383;-82
2023/09/07 01:44:15;;;;;;;0.20;0.20;;;;;;;20.72;44.27;101732.47;5012388;28;20380;-82
2023/09/07 01:46:41;;;;;;;0.20;0.20;;;;;;;20.85;44.18;101739.66;5012358;28;20380;-82
2023/09/07 01:49:06;;;;;;;0.20;0.20;;;;;;;20.85;44.05;101732.44;5012149;28;20476;-82
2023/09/07 01:51:32;;;;;;;0.33;0.33;;;;;;;20.86;44.11;101730.56;5011938;28;20384;-82
2023/09/07 01:53:57;;;;;;;0.50;0.50;;;;;;;20.79;44.25;101734.06;5011953;28;20423;-82
2023/09/07 01:56:23;;;;;;;0.33;0.33;;;;;;;20.61;44.63;101731.25;5012419;28;20391;-82
2023/09/07 01:58:48;;;;;;;0.27;0.27;;;;;;;20.51;44.53;101720.91;5012086;28;20466;-82
2023/09/07 02:01:31;;;;;;;0.50;0.50;;;;;;;20.47;44.94;101726.91;5018252;28;20380;-82
2023/09/07 02:03:57;;;;;;;0.25;0.25;;;;;;;20.41;44.93;101726.72;5012084;28;20392;-82
2023/09/07 02:06:23;;;;;;;0.40;0.40;;;;;;;20.47;44.92;101713.44;4978587;28;20383;-84
2023/09/07 02:08:49;;;;;;;0.30;0.30;;;;;;;20.47;44.83;101721.53;5012019;28;20384;-82
2023/09/07 02:11:15;;;;;;;0.30;0.25;;;;;;;20.43;44.97;101726.50;5012069;28;20491;-83
2023/09/07 02:13:48;;;;;;;0.40;0.40;;;;;;;20.35;45.00;101732.13;5011936;28;20981;-83
2023/09/07 02:16:13;;;;;;;0.30;0.30;;;;;;;20.30;45.08;101724.66;4961706;28;20423;-81
2023/09/07 02:18:46;;;;;;;0.40;0.40;;;;;;;20.23;45.21;101740.00;5011628;28;20705;-80
2023/09/07 02:21:13;;;;;;;0.32;0.32;;;;;;;20.24;45.17;101736.28;4993929;28;20930;-81
2023/09/07 02:23:39;;;;;;;1.00;0.82;;;;;;;20.19;45.12;101726.13;4994229;28;20474;-81
2023/09/07 02:26:04;;;;;;;0.10;0.10;;;;;;;20.16;45.39;101733.81;4994421;28;20885;-82
2023/09/07 02:28:30;;;;;;;0.22;0.22;;;;;;;20.09;45.38;101732.97;5011430;28;20387;-82
2023/09/07 02:31:03;;;;;;;0.33;0.33;;;;;;;20.11;45.26;101738.97;5011511;28;20499;-82
2023/09/07 02:33:28;;;;;;;0.40;0.40;;;;;;;20.05;45.33;101740.63;5011407;28;20834;-82
2023/09/07 02:35:54;;;;;;;0.30;0.30;;;;;;;20.13;45.22;101744.97;5011201;28;20376;-83
2023/09/07 02:38:20;;;;;;;0.55;0.55;;;;;;;20.13;45.16;101740.44;5029660;22;20515;-82
2023/09/07 02:40:45;;;;;;;0.30;0.30;;;;;;;20.22;44.87;101741.88;5031397;28;20378;-81
2023/09/07 02:43:11;;;;;;;0.60;0.50;;;;;;;20.16;44.96;101741.88;5030319;28;20386;-82
2023/09/07 02:45:38;;;;;;;0.30;0.30;;;;;;;20.05;44.94;101746.03;5030933;28;20394;-81
2023/09/07 02:48:05;;;;;;;0.30;0.30;;;;;;;20.12;44.90;101748.72;5031004;28;20382;-81
2023/09/07 02:51:05;;;;;;;0.20;0.20;;;;;;;20.10;44.88;101748.91;5029576;28;20393;-81
2023/09/07 02:53:30;;;;;;;0.60;0.60;;;;;;;20.09;44.73;101739.19;5031009;28;20549;-81
2023/09/07 02:55:56;;;;;;;0.40;0.40;;;;;;;20.19;44.58;101752.25;5031006;28;20414;-81
2023/09/07 02:58:23;;;;;;;6.50;0.55;;;;;;;20.20;44.44;101753.88;5030778;28;20382;-81
2023/09/07 03:00:48;;;;;;;0.35;0.35;;;;;;;20.22;44.26;101754.50;5030725;28;20374;-82
2023/09/07 03:03:14;;;;;;;0.50;0.50;;;;;;;20.27;44.28;101749.31;5029330;28;20394;-80
2023/09/07 03:05:41;;;;;;;0.30;0.30;;;;;;;20.38;44.11;101754.06;5030749;28;20414;-79
2023/09/07 03:08:07;;;;;;;0.30;0.30;;;;;;;20.40;44.00;101752.00;5029723;28;20379;-80
2023/09/07 03:10:35;;;;;;;0.57;0.57;;;;;;;20.42;43.79;101755.31;5029477;28;20386;-81
2023/09/07 03:13:00;;;;;;;0.30;0.30;;;;;;;20.46;43.74;101758.41;5030347;28;20442;-81
2023/09/07 03:15:26;;;;;;;0.17;0.17;;;;;;;20.50;43.66;101756.94;5030465;28;20456;-81
2023/09/07 03:17:51;;;;;;;0.20;0.20;;;;;;;20.55;43.53;101754.44;5030800;28;20379;-80
2023/09/07 03:20:17;;;;;;;0.30;0.30;;;;;;;20.63;43.53;101758.81;5030409;28;20374;-80
2023/09/07 03:22:44;;;;;;;0.30;0.30;;;;;;;20.66;43.41;101757.56;5030185;28;20829;-79
2023/09/07 03:25:11;;;;;;;0.20;0.20;;;;;;;20.67;43.40;101761.91;5030218;28;20383;-79
2023/09/07 03:27:39;;;;;;;0.47;0.47;;;;;;;20.59;43.60;101761.06;5030201;28;20397;-80
2023/09/07 03:30:05;;;;;;;0.20;0.20;;;;;;;20.64;43.59;101770.44;4995802;28;20418;-79
2023/09/07 03:32:33;;;;;;;0.20;0.20;;;;;;;20.63;43.61;101769.56;5012349;28;20959;-79
2023/09/07 03:35:00;;;;;;;0.20;0.20;;;;;;;20.44;43.90;101764.00;5030329;28;20460;-81
2023/09/07 03:37:27;;;;;;;0.30;0.30;;;;;;;20.47;43.79;101770.00;5029857;28;20390;-81
2023/09/07 03:39:53;;;;;;;0.50;0.50;;;;;;;20.39;44.21;101777.25;5029457;28;20441;-80
2023/09/07 03:42:18;;;;;;;0.30;0.30;;;;;;;20.37;44.29;101781.22;5030083;28;20896;-81
2023/09/07 03:44:43;;;;;;;0.10;0.10;;;;;;;20.36;44.18;101791.13;5030462;28;20413;-80
2023/09/07 03:47:10;;;;;;;0.10;0.10;;;;;;;20.39;44.42;101801.50;5030125;28;20379;-81
2023/09/07 03:49:39;;;;;;;0.10;0.10;;;;;;;20.32;44.47;101803.38;5030171;28;20386;-82
2023/09/07 03:52:05;;;;;;;0.20;0.20;;;;;;;20.12;44.89;101795.31;5030044;28;20385;-80
2023/09/07 03:54:31;;;;;;;0.10;0.10;;;;;;;20.06;45.13;101798.84;5009931;28;20410;-81
2023/09/07 03:56:58;;;;;;;0.20;0.20;;;;;;;20.12;45.16;101816.03;5027411;28;20456;-81
2023/09/07 03:59:27;;;;;;;0.32;0.32;;;;;;;20.17;44.96;101810.84;5010961;28;20395;-80
2023/09/07 04:01:54;;;;;;;0.10;0.10;;;;;;;20.08;45.16;101807.53;5027340;28;20394;-80
2023/09/07 04:04:21;;;;;;;0.20;0.20;;;;;;;19.80;45.59;101807.69;5027149;28;20453;-81
2023/09/07 04:06:50;;;;;;;0.20;0.20;;;;;;;19.84;45.60;101817.84;5026105;28;20417;-81
2023/09/07 04:09:15;;;;;;;0.10;0.10;;;;;;;20.03;45.01;101810.00;5027644;28;20418;-81
2023/09/07 04:11:41;;;;;;;0.23;0.23;;;;;;;20.16;44.78;101809.19;5010064;28;20436;-82
2023/09/07 04:14:09;;;;;;;1.00;0.30;;;;;;;20.13;44.94;101807.75;5009381;28;20413;-84
2023/09/07 04:16:35;;;;;;;0.10;0.10;;;;;;;20.25;44.60;101822.22;5009643;28;20453;-81
2023/09/07 04:19:01;;;;;;;0.17;0.17;;;;;;;20.25;44.52;101818.69;5010107;28;20386;-82
2023/09/07 04:21:27;;;;;;;0.50;0.50;;;;;;;20.26;44.42;101817.69;5024957;28;20382;-82
2023/09/07 04:23:55;;;;;;;0.20;0.20;;;;;;;20.29;44.31;101811.03;5008016;28;20745;-81
2023/09/07 04:26:20;;;;;;;0.20;0.20;;;;;;;20.16;44.60;101815.38;5021717;28;20389;-81
2023/09/07 04:28:47;;;;;;;0.30;0.30;;;;;;;20.10;44.65;101827.00;5026364;28;20378;-83
2023/09/07 04:31:13;;;;;;;0.20;0.20;;;;;;;20.00;44.64;101813.91;5027774;28;20414;-81
2023/09/07 04:33:39;;;;;;;0.10;0.10;;;;;;;20.08;44.79;101828.22;5029544;28;20433;-81
2023/09/07 04:36:13;;;;;;;0.30;0.30;;;;;;;20.19;44.41;101828.44;5029927;28;20382;-82
2023/09/07 04:38:39;;;;;;;0.20;0.20;;;;;;;20.27;44.36;101829.25;5028355;28;20409;-80
2023/09/07 04:41:12;;;;;;;0.20;0.20;;;;;;;20.32;44.42;101826.78;5011856;28;20383;-81
2023/09/07 04:43:43;;;;;;;0.25;0.25;;;;;;;20.35;44.24;101832.59;5028265;28;20386;-82
2023/09/07 04:46:09;;;;;;;0.25;0.25;;;;;;;20.41;44.23;101830.91;5029839;28;20377;-80
2023/09/07 04:48:34;;;;;;;0.75;0.75;;;;;;;20.43;44.31;101829.66;5029591;28;20404;-79
2023/09/07 04:51:01;;;;;;;0.10;0.10;;;;;;;20.48;44.24;101837.13;5029775;28;20392;-83
2023/09/07 04:53:32;;;;;;;0.20;0.20;;;;;;;20.48;44.28;101839.81;5028492;28;20788;-82
2023/09/07 04:56:06;;;;;;;0.30;0.30;;;;;;;20.46;44.64;101844.59;5029579;28;20379;-82
2023/09/07 04:58:32;;;;;;;0.20;0.20;;;;;;;20.44;44.59;101843.97;5029419;28;20384;-81
2023/09/07 05:01:06;;;;;;;0.30;0.30;;;;;;;20.49;44.52;101846.03;5030072;28;20465;-81
2023/09/07 05:03:32;;;;;;;0.20;0.20;;;;;;;20.53;44.60;101847.28;5028477;28;20386;-82
2023/09/07 05:05:58;;;;;;;0.30;0.30;;;;;;;20.56;44.33;101838.78;5030975;28;20889;-80
2023/09/07 05:08:26;;;;;;;0.10;0.10;;;;;;;20.58;44.46;101844.78;5033535;28;20436;-82
2023/09/07 05:10:56;;;;;;;0.15;0.15;;;;;;;20.60;44.40;101842.72;5033229;28;20417;-82
2023/09/07 05:13:23;;;;;;;1.00;0.77;;;;;;;20.60;44.35;101840.84;5033876;28;20464;-83
2023/09/07 05:15:53;;;;;;;0.25;0.25;;;;;;;20.62;44.41;101843.38;5034596;28;20417;-79
2023/09/07 05:18:19;;;;;;;0.20;0.20;;;;;;;20.68;44.28;101857.88;5032670;28;20920;-80
2023/09/07 05:20:44;;;;;;;0.20;0.20;;;;;;;20.69;44.37;101860.34;5032293;28;20379;-80
2023/09/07 05:23:17;;;;;;;0.30;0.30;;;;;;;20.68;44.31;101858.69;5033651;28;20397;-80
2023/09/07 05:25:47;;;;;;;0.43;0.35;;;;;;;20.66;44.38;101854.56;5031912;28;20436;-78
2023/09/07 05:28:14;;;;;;;0.32;0.32;;;;;;;20.46;44.85;101855.38;5033150;28;20409;-79
2023/09/07 05:30:40;;;;;;;0.40;0.40;;;;;;;20.33;45.30;101845.44;5033049;28;20765;-78
2023/09/07 05:33:05;;;;;;;0.50;0.50;;;;;;;20.31;45.45;101854.72;5032615;28;20414;-79
2023/09/07 05:35:32;;;;;;;0.32;0.32;;;;;;;20.44;45.17;101850.19;5032343;28;20816;-80
2023/09/07 05:37:58;;;;;;;0.90;0.40;;;;;;;20.56;44.90;101852.25;5032421;28;20422;-79
2023/09/07 05:40:24;;;;;;;0.28;0.28;;;;;;;20.57;44.88;101851.22;5032901;28;20922;-81
2023/09/07 05:42:50;;;;;;;0.15;0.15;;;;;;;20.55;44.90;101854.13;5032416;28;20425;-80
2023/09/07 05:45:15;;;;;;;0.33;0.33;;;;;;;20.64;44.78;101862.84;5032498;28;20418;-80
2023/09/07 05:47:41;;;;;;;0.60;0.60;;;;;;;20.70;44.57;101861.19;5031289;28;20387;-80
2023/09/07 05:50:06;;;;;;;0.20;0.20;;;;;;;20.84;44.59;101867.38;5032137;28;20421;-80
2023/09/07 05:52:32;;;;;;;0.27;0.27;;;;;;;20.80;44.54;101865.09;5030978;28;20383;-79
2023/09/07 05:54:57;;;;;;;0.73;0.73;;;;;;;20.84;44.33;101870.91;5032426;28;20808;-80
2023/09/07 05:57:23;;;;;;;0.60;0.60;;;;;;;20.75;44.57;101869.47;5032179;28;20390;-80
2023/09/07 05:59:48;;;;;;;0.77;0.63;;;;;;;20.72;44.58;101868.00;5032120;28;20415;-80
2023/09/07 06:02:14;;;;;;;0.60;0.30;;;;;;;20.70;44.60;101871.97;5032702;28;20768;-81
2023/09/07 06:04:40;;;;;;;0.53;0.53;;;;;;;20.74;44.71;101873.19;5031196;28;20464;-80
2023/09/07 06:07:05;;;;;;;0.30;0.30;;;;;;;20.86;44.61;101876.91;5032166;28;20445;-81
2023/09/07 06:09:31;;;;;;;0.30;0.30;;;;;;;20.86;44.39;101876.09;5030703;28;20421;-81
2023/09/07 06:11:56;;;;;;;0.50;0.50;;;;;;;20.86;44.56;101881.47;5031880;28;20893;-82
2023/09/07 06:14:22;;;;;;;1.20;1.10;;;;;;;20.85;44.58;101885.19;5031930;28;20463;-80
2023/09/07 06:16:47;;;;;;;0.70;0.70;;;;;;;20.89;44.64;101883.75;5031758;28;20379;-80
2023/09/07 06:19:12;;;;;;;0.38;0.38;;;;;;;20.85;44.31;101888.75;5030917;28;20390;-81
2023/09/07 06:21:38;;;;;;;0.43;0.43;;;;;;;20.80;44.50;101886.66;5032597;28;20435;-85
2023/09/07 06:24:06;;;;;;;0.13;0.13;;;;;;;20.91;44.42;101889.75;5033702;28;20379;-83
2023/09/07 06:26:32;;;;;;;0.30;0.30;;;;;;;20.93;44.16;101891.19;5032087;28;20383;-81
2023/09/07 06:28:57;;;;;;;0.13;0.13;;;;;;;20.96;44.06;101888.09;5030744;28;20392;-82
2023/09/07 06:31:24;;;;;;;0.60;0.60;;;;;;;21.10;43.81;101888.03;5031974;28;20401;-80
2023/09/07 06:33:50;;;;;;;0.30;0.30;;;;;;;21.26;43.67;101887.56;5031929;28;20409;-79
2023/09/07 06:36:15;;;;;;;0.10;0.10;;;;;;;21.49;43.35;101895.22;5030802;28;20461;-81
2023/09/07 06:38:40;;;;;;;0.60;0.40;;;;;;;21.57;43.17;101903.06;5030011;28;20406;-81
2023/09/07 06:41:07;;;;;;;0.20;0.20;;;;;;;21.68;43.12;101898.88;5031017;28;20826;-81
2023/09/07 06:43:33;;;;;;;0.50;0.50;;;;;;;21.69;42.89;101899.69;5031364;28;20386;-83
2023/09/07 06:46:08;;;;;;;0.13;0.13;;;;;;;21.75;42.57;101896.13;5029723;28;20977;-81
2023/09/07 06:48:34;;;;;;;1.10;1.00;;;;;;;21.73;42.29;101901.75;5032001;28;20383;-81
2023/09/07 06:51:04;;;;;;;0.10;0.10;;;;;;;21.56;42.39;101895.19;5029943;28;20490;-84
2023/09/07 06:53:30;;;;;;;0.40;0.40;;;;;;;21.67;42.24;101909.88;5030007;28;20448;-80
2023/09/07 06:56:05;;;;;;;0.20;0.20;;;;;;;21.66;42.08;101908.22;5030435;28;20829;-81
2023/09/07 06:58:32;;;;;;;0.20;0.20;;;;;;;21.61;41.77;101910.72;5030320;28;20906;-81
2023/09/07 07:00:59;;;;;;;0.20;0.20;;;;;;;21.64;41.57;101905.72;5030974;28;20414;-80
2023/09/07 07:03:28;;;;;;;1.00;0.90;;;;;;;21.75;41.75;101893.41;5030734;28;20475;-80
2023/09/07 07:05:55;;;;;;;0.30;0.30;;;;;;;21.94;41.62;101902.47;5030023;28;20381;-81
2023/09/07 07:08:20;;;;;;;0.80;0.70;;;;;;;22.13;41.47;101895.28;5031271;28;20378;-81
2023/09/07 07:10:46;;;;;;;0.15;0.15;;;;;;;22.09;41.12;101902.16;5030938;28;20382;-80
2023/09/07 07:13:11;;;;;;;0.20;0.20;;;;;;;22.22;40.82;101901.22;5029626;28;20449;-80
2023/09/07 07:15:37;;;;;;;0.20;0.20;;;;;;;22.36;40.61;101897.41;5029773;28;20497;-79
2023/09/07 07:18:08;;;;;;;0.10;0.10;;;;;;;22.43;40.66;101898.19;5031101;28;20390;-82
2023/09/07 07:20:41;;;;;;;0.38;0.38;;;;;;;22.57;39.90;101903.50;5030906;28;20411;-78
2023/09/07 07:23:07;;;;;;;0.10;0.10;;;;;;;22.56;39.60;101907.25;5030841;28;20405;-78
2023/09/07 07:25:34;;;;;;;0.20;0.20;;;;;;;22.88;39.69;101910.69;5029327;28;20754;-78
2023/09/07 07:28:00;;;;;;;0.30;0.20;;;;;;;22.95;38.80;101908.75;5028741;28;20904;-83
2023/09/07 07:30:29;;;;;;;0.20;0.20;;;;;;;23.02;38.95;101909.50;5029688;28;20580;-80
2023/09/07 07:32:55;;;;;;;0.20;0.20;;;;;;;23.16;39.07;101901.31;5029714;28;20413;-79
2023/09/07 07:35:21;;;;;;;0.20;0.20;;;;;;;23.33;39.00;101910.44;5028623;28;20481;-79
2023/09/07 07:37:46;;;;;;;0.60;0.60;;;;;;;23.29;38.18;101896.53;5028146;28;20552;-78
2023/09/07 07:40:12;;;;;;;0.15;0.15;;;;;;;23.34;38.86;101908.59;5029708;28;20435;-80
2023/09/07 07:42:37;;;;;;;0.30;0.30;;;;;;;23.43;38.34;101891.81;5028219;28;20428;-81
2023/09/07 07:45:03;;;;;;;0.30;0.30;;;;;;;23.64;38.34;101901.34;5029059;28;20762;-81
2023/09/07 07:47:29;;;;;;;0.10;0.10;;;;;;;23.81;37.98;101898.00;5028916;28;20413;-81
2023/09/07 07:49:54;;;;;;;0.57;0.57;;;;;;;23.94;37.75;101899.72;5027137;28;20382;-80
2023/09/07 07:52:20;;;;;;;0.30;0.30;;;;;;;24.03;37.63;101904.56;5026444;28;20378;-83
2023/09/07 07:54:45;;;;;;;0.20;0.20;;;;;;;24.07;37.43;101893.25;5026676;28;20410;-81
2023/09/07 07:57:11;;;;;;;0.20;0.20;;;;;;;24.08;37.02;101898.47;5027206;28;20490;-81
2023/09/07 07:59:37;;;;;;;0.20;0.20;;;;;;;24.17;36.72;101897.06;5027465;28;20382;-81
2023/09/07 08:02:03;;;;;;;0.37;0.37;;;;;;;24.26;36.77;101902.16;5029811;28;20391;-79
2023/09/07 08:04:29;;;;;;;0.30;0.30;;;;;;;24.34;36.29;101902.63;5030288;28;20401;-79
2023/09/07 08:06:58;;;;;;;0.20;0.20;;;;;;;24.37;36.27;101901.34;5030198;28;20897;-80
2023/09/07 08:09:23;;;;;;;0.20;0.20;;;;;;;24.45;36.58;101900.16;5030064;28;20454;-79
2023/09/07 08:11:49;;;;;;;0.70;0.38;;;;;;;24.46;36.35;101897.22;5028728;28;20441;-79
2023/09/07 08:14:14;;;;;;;0.13;0.13;;;;;;;24.42;35.74;101890.63;5029808;28;20403;-81
2023/09/07 08:16:40;;;;;;;0.17;0.17;;;;;;;24.49;36.20;101890.50;5028764;28;20441;-80
2023/09/07 08:19:05;;;;;;;0.15;0.15;;;;;;;24.69;36.18;101893.75;5030063;28;20374;-80
2023/09/07 08:21:31;;;;;;;0.40;0.40;;;;;;;24.78;35.75;101896.91;5029886;28;20730;-80
2023/09/07 08:23:56;;;;;;;0.17;0.17;;;;;;;24.70;35.95;101881.81;5029834;28;20416;-79
2023/09/07 08:26:22;;;;;;;0.30;0.30;;;;;;;24.74;35.81;101895.72;5029974;28;20383;-80
2023/09/07 08:28:47;;;;;;;0.50;0.40;;;;;;;24.80;36.02;101890.19;5030198;28;20449;-79
2023/09/07 08:31:20;;;;;;;0.13;0.13;;;;;;;24.82;35.92;101879.09;5028872;28;20440;-80
2023/09/07 08:33:46;;;;;;;0.20;0.20;;;;;;;25.02;35.89;101881.44;5028919;28;20813;-81
2023/09/07 08:36:12;;;;;;;0.10;0.10;;;;;;;25.10;35.77;101874.81;5028815;28;20398;-80
2023/09/07 08:38:37;;;;;;;0.10;0.10;;;;;;;25.22;35.69;101872.91;5030223;28;20904;-82
2023/09/07 08:41:06;;;;;;;0.27;0.27;;;;;;;25.22;35.14;101872.91;5032081;28;20390;-81
2023/09/07 08:43:45;;;;;;;0.10;0.10;;;;;;;25.40;35.39;101873.84;5034595;28;20390;-80
2023/09/07 08:46:20;;;;;;;0.50;0.20;;;;;;;25.52;35.54;101875.44;5034082;28;20562;-82
2023/09/07 08:48:47;;;;;;;0.70;0.70;;;;;;;25.63;35.15;101876.47;5033785;28;20393;-82
2023/09/07 08:51:15;;;;;;;1.20;0.20;;;;;;;25.66;35.06;101869.69;5034111;28;20387;-81
2023/09/07 08:53:42;;;;;;;0.10;0.10;;;;;;;25.67;34.99;101865.94;5032455;28;20410;-80
2023/09/07 08:56:09;;;;;;;0.40;0.40;;;;;;;25.60;35.55;101857.94;5033425;28;20391;-80
2023/09/07 08:58:36;;;;;;;0.20;0.20;;;;;;;25.73;34.64;101856.78;5032490;28;20461;-80
2023/09/07 09:01:03;;;;;;;0.30;0.30;;;;;;;25.87;34.56;101858.13;5033488;28;20378;-79
2023/09/07 09:03:30;;;;;;;0.10;0.10;;;;;;;25.98;34.43;101855.63;5033875;28;20428;-81
2023/09/07 09:05:56;;;;;;;0.28;0.28;;;;;;;25.94;33.72;101853.41;5033271;28;20892;-80
2023/09/07 09:08:24;;;;;;;0.13;0.13;;;;;;;25.98;33.72;101853.75;5034522;28;20465;-80
2023/09/07 09:11:00;;;;;;;0.27;0.27;;;;;;;25.93;33.78;101848.25;5033635;28;20386;-84
2023/09/07 09:13:31;;;;;;;0.17;0.17;;;;;;;25.93;33.56;101840.91;5034365;28;20402;-79
2023/09/07 09:15:59;;;;;;;0.20;0.20;;;;;;;25.95;33.74;101843.38;5033216;28;20452;-83
2023/09/07 09:18:26;;;;;;;0.10;0.10;;;;;;;25.98;34.20;101845.59;5032307;28;20398;-80
2023/09/07 09:20:52;;;;;;;0.20;0.20;;;;;;;26.06;33.73;101841.66;5033479;28;20927;-80
2023/09/07 09:23:18;;;;;;;0.28;0.28;;;;;;;26.13;33.94;101843.13;5031766;28;20383;-80
2023/09/07 09:25:43;;;;;;;0.50;0.50;;;;;;;26.25;33.66;101839.50;5033448;28;20379;-81
2023/09/07 09:28:10;;;;;;;0.50;0.50;;;;;;;26.37;33.96;101847.59;5033007;28;20727;-81
2023/09/07 09:30:36;;;;;;;0.20;0.20;;;;;;;26.41;34.04;101841.38;5032700;28;20960;-80
2023/09/07 09:33:05;;;;;;;0.20;0.20;;;;;;;26.40;33.95;101842.47;5033091;28;20932;-79
2023/09/07 09:35:31;;;;;;;0.20;0.20;;;;;;;26.31;33.50;101836.63;5032736;28;20378;-81
2023/09/07 09:38:04;;;;;;;0.20;0.20;;;;;;;26.39;33.75;101840.00;5031498;28;20406;-80
2023/09/07 09:40:31;;;;;;;1.05;0.90;;;;;;;26.48;33.81;101838.50;5031261;28;20394;-81
2023/09/07 09:42:58;;;;;;;0.50;0.50;;;;;;;26.58;33.64;101837.81;5032680;28;20417;-80
2023/09/07 09:45:26;;;;;;;0.20;0.20;;;;;;;26.67;33.62;101831.75;5032433;28;20386;-81
2023/09/07 09:47:55;;;;;;;0.50;0.50;;;;;;;26.68;33.37;101827.13;5032922;28;20414;-80
2023/09/07 09:50:22;;;;;;;2.63;1.17;;;;;;;26.72;33.42;101832.88;5030835;28;20789;-81
2023/09/07 09:52:48;;;;;;;0.10;0.10;;;;;;;26.81;33.36;101834.09;5030952;28;20382;-79
2023/09/07 09:55:15;;;;;;;0.10;0.10;;;;;;;26.91;33.23;101831.50;5031142;28;20394;-80
2023/09/07 09:57:41;;;;;;;0.13;0.13;;;;;;;26.96;33.12;101828.03;5032508;28;20378;-79
2023/09/07 10:00:26;;;;;;;0.30;0.30;;;;;;;26.96;33.17;101825.31;5032212;28;20764;-80
2023/09/07 10:03:07;;;;;;;0.20;0.20;;;;;;;27.02;32.75;101825.09;5032090;28;20393;-81
2023/09/07 10:05:34;;;;;;;0.70;0.30;;;;;;;27.09;32.67;101809.41;5032326;28;20386;-81
2023/09/07 10:08:05;;;;;;;0.30;0.30;;;;;;;27.25;32.52;101801.41;5032057;28;20386;-82
2023/09/07 10:10:38;;;;;;;0.10;0.10;;;;;;;27.28;32.64;101803.69;5032564;28;20432;-80
2023/09/07 10:13:05;;;;;;;0.20;0.20;;;;;;;27.36;32.70;101797.75;5032001;28;20402;-82
2023/09/07 10:15:32;;;;;;;0.20;0.20;;;;;;;27.33;32.80;101794.72;5032200;28;20378;-82
2023/09/07 10:18:10;;;;;;;0.30;0.30;;;;;;;27.46;32.62;101791.59;5032846;28;20417;-80
2023/09/07 10:21:02;;;;;;;0.30;0.30;;;;;;;27.46;33.05;101778.00;5031611;28;20946;-80
2023/09/07 10:23:38;;;;;;;0.20;0.20;;;;;;;27.50;33.16;101778.28;5030485;28;20394;-80
2023/09/07 10:26:05;;;;;;;0.20;0.20;;;;;;;27.55;33.01;101772.88;5032282;28;20393;-83
2023/09/07 10:28:30;;;;;;;0.17;0.17;;;;;;;27.63;32.98;101762.31;5032085;28;20485;-81
2023/09/07 10:31:03;;;;;;;0.40;0.40;;;;;;;27.67;32.49;101768.06;5031902;28;20379;-81
2023/09/07 10:34:24;;;;;;;0.10;0.10;;;;;;;27.70;32.37;101767.56;5031896;28;20863;-80
2023/09/07 10:37:17;;;;;;;0.30;0.30;;;;;;;27.74;32.58;101759.69;5031112;28;20418;-81
2023/09/07 10:39:44;;;;;;;0.10;0.10;;;;;;;27.78;32.14;101753.44;5032074;28;20402;-81
2023/09/07 10:42:30;;;;;;;0.20;0.20;;;;;;;27.81;32.65;101749.41;5030060;28;20425;-82
2023/09/07 10:44:55;;;;;;;0.30;0.30;;;;;;;27.93;32.51;101750.06;5029668;28;20766;-79
2023/09/07 10:47:21;;;;;;;0.13;0.13;;;;;;;27.97;32.11;101747.66;5031741;28;20393;-79
2023/09/07 10:49:47;;;;;;;0.45;0.30;;;;;;;28.02;32.20;101745.78;5031217;28;20421;-81
2023/09/07 10:52:13;;;;;;;0.40;0.40;;;;;;;28.05;32.24;101749.88;5032009;28;20444;-79
2023/09/07 10:54:38;;;;;;;0.20;0.20;;;;;;;28.14;32.21;101750.19;5030548;28;20489;-80
2023/09/07 10:57:13;;;;;;;0.40;0.40;;;;;;;28.18;32.28;101752.16;5029781;28;20408;-80
2023/09/07 10:59:43;;;;;;;0.20;0.20;;;;;;;28.17;32.20;101752.41;5030465;28;20412;-80
2023/09/07 11:02:09;;;;;;;0.40;0.40;;;;;;;28.25;31.86;101748.34;5031168;28;20622;-80
2023/09/07 11:04:34;;;;;;;0.27;0.27;;;;;;;28.20;32.05;101743.72;5031831;28;20386;-79
2023/09/07 11:07:02;;;;;;;0.20;0.20;;;;;;;28.23;31.96;101743.16;5031048;28;20401;-81
2023/09/07 11:09:30;;;;;;;0.43;0.43;;;;;;;28.34;31.91;101744.03;5031016;28;20481;-81
2023/09/07 11:11:56;;;;;;;0.25;0.25;;;;;;;28.40;32.02;101734.81;5028630;28;20394;-79
2023/09/07 11:14:22;;;;;;;0.15;0.15;;;;;;;28.54;31.96;101726.97;5029964;28;20402;-81
2023/09/07 11:16:48;;;;;;;0.20;0.20;;;;;;;28.61;31.85;101724.81;5030603;28;20378;-83
2023/09/07 11:19:18;;;;;;;0.20;0.20;;;;;;;28.68;32.10;101719.13;5030637;28;20382;-84
2023/09/07 11:21:44;;;;;;;0.20;0.20;;;;;;;28.58;31.64;101714.47;5027851;28;20812;-84
2023/09/07 11:24:10;;;;;;;0.40;0.40;;;;;;;28.58;31.55;101718.00;5027710;28;20408;-80
2023/09/07 11:26:46;;;;;;;0.30;0.30;;;;;;;28.63;31.77;101705.47;5028297;28;20425;-79